John Hill

Olheiro - Leeds United
6 Nov 2027
Sábado
Processo

Personalidade

Adaptabilidade (10) Ambição (8) Controvérsia (14) Lealdade (10) Pressão (16) Profissionalismo (9) Espírito Esportivo (6) Temperamento (7)

Perfil

Estilo de Treinamento Democrático
Licença Continental Pro
Determinação 14
Gestão de Pessoas 7
Motivação 7
Disciplina 9
Satisfação no Trabalho
46%
Fadiga
0%
Função Olheiro
Salário 23.9K p/s
Contrato 14.03.2029

Desempenho

Comportamento Bom
Eficácia do Treinamento
19%
Desenvolvimento do Jogador
60%
Prevenção de Lesões
60%
Implementação Tática
65%

Eventos Recentes

Participou de uma reunião de recrutamento 7d atrás
Participou de uma reunião de recrutamento 7d atrás
Participou de uma reunião de recrutamento 14d atrás
Participou de uma reunião de recrutamento 14d atrás
Participou de uma reunião de recrutamento 21d atrás
Participou de uma reunião de recrutamento 21d atrás
Participou de uma reunião de recrutamento 28d atrás
Participou de uma reunião de recrutamento 28d atrás

Monitorando agora

95
Jogador Clube Status Habilidade Confiança Observado Última observação Último voto
Roger Fernandes Al-Ittihad Ativo 139 / 152 40% 1 15.06.2027 -
Caleb Yirenkyi Coventry City Ativo 140 / 131 40% 1 15.06.2027 -
Ben Gannon Doak Bournemouth Ativo 147 / 145 40% 1 15.06.2027 -
Lucas Jetten Cambuur Ativo 112 / 118 40% 1 31.05.2027 -
Jonathan De Irastorza Levante Ativo 126 / 122 40% 1 31.05.2027 -
Enzo Barrenechea Burnley Ativo 145 / 152 40% 3 31.12.2026 -
Yehor Yarmoliuk Brentford Ativo 143 / 137 40% 2 31.12.2026 -
Tino Livramento Newcastle United Ativo 152 / 169 40% 1 31.12.2026 -
Yousef Salech Cardiff City Ativo 127 / 132 40% 3 30.12.2026 -
Harvey Blair Portsmouth Ativo 116 / 113 40% 2 30.12.2026 -
Ryan Sessegnon Fulham Ativo 141 / 144 40% 5 29.12.2026 -
Micky van de Ven Tottenham Ativo 160 / 150 40% 5 29.12.2026 -
Josh Coburn Millwall Ativo 117 / 108 40% 1 29.12.2026 -
Jay Stansfield Birmingham Ativo 128 / 129 40% 3 28.12.2026 -
Joe Gelhardt Hull City Ativo 126 / 127 40% 6 28.12.2026 -
Amadou Onana Newcastle United Ativo 150 / 149 40% 4 24.12.2026 -
Elliot Anderson Manchester City Ativo 156 / 159 40% 3 24.12.2026 -
Brian Brobbey Sunderland Ativo 142 / 140 40% 1 24.12.2026 -
Wesley Fofana Chelsea Ativo 156 / 171 40% 1 24.12.2026 -
James Garner Everton Ativo 147 / 148 40% 2 22.12.2026 -
Quinten Timber Crystal Palace Ativo 149 / 163 40% 2 22.12.2026 -
Mees Rijks Bristol Rovers Ativo 104 / 117 40% 2 21.12.2026 -
André Wolverhampton Ativo 146 / 153 40% 3 20.12.2026 -
Curtis Jones Inter Ativo 160 / 153 40% 2 20.12.2026 -
Óscar Mingueza Crystal Palace Ativo 155 / 158 40% 1 20.12.2026 -
Armstrong Oko-Flex Levski Ativo 126 / 115 40% 1 20.12.2026 -
Gonzalo Fulham Ativo 143 / 149 40% 3 16.12.2026 -
Mihailo Ivanović Millwall Ativo 118 / 121 40% 4 16.12.2026 -
Dale Taylor Blackpool Ativo 111 / 114 40% 3 16.12.2026 -
Reece James Chelsea Ativo 176 / 164 40% 3 14.12.2026 -
Noah Sadiki Sunderland Ativo 147 / 146 40% 1 14.12.2026 -
Calvin Bassey Fulham Ativo 152 / 136 40% 1 12.12.2026 -
Adam Wharton Crystal Palace Ativo 155 / 150 40% 3 11.12.2026 -
Jorrel Hato Chelsea Ativo 143 / 141 40% 1 11.12.2026 -
Nathan Collins Brentford Ativo 144 / 135 40% 1 11.12.2026 -
Camilo Durán Bloemfontein Celtic Ativo 124 / 107 40% 4 08.12.2026 -
Troy Parrott Betis Ativo 132 / 139 40% 3 08.12.2026 -
Bradley Fink Wycombe Wanderers Ativo 105 / 100 40% 1 08.12.2026 -
Mathias Kvistgaarden Norwich City Ativo 118 / 109 40% 5 07.12.2026 -
Fábio Carvalho Brentford Ativo 134 / 140 40% 3 05.12.2026 -
Aidomo Emakhu Oxford United Ativo 122 / 118 40% 2 05.12.2026 -
Liam Delap Nottingham Forest Ativo 140 / 143 40% 6 04.12.2026 -
Morgan Rogers Chelsea Ativo 162 / 152 40% 3 04.12.2026 Observar
Bénie Traoré New York City Ativo 118 / 135 40% 5 04.12.2026 -
Lamine Cissé Peterborough United Ativo 124 / 130 40% 4 01.12.2026 -
Jovon Makama Norwich City Ativo 126 / 130 40% 2 30.11.2026 -
Talles Magno New York City Ativo 137 / 133 40% 3 30.11.2026 -
Trevoh Chalobah Como Ativo 149 / 154 40% 1 28.11.2026 -
Emanuel Emegha Chelsea Ativo 145 / 131 40% 4 27.11.2026 -
Tyler Adams Bournemouth Ativo 151 / 161 40% 3 25.11.2026 -
Tommy Conway Middlesbrough Ativo 126 / 124 40% 1 24.11.2026 -
Neco Williams Nottingham Forest Ativo 147 / 144 40% 3 23.11.2026 -
Sandro Tonali Tottenham Ativo 171 / 178 40% 2 22.11.2026 -
Boubacar Kamara Aston Villa Ativo 169 / 172 40% 2 22.11.2026 -
Dango Ouattara Brentford Ativo 144 / 151 40% 6 21.11.2026 -
Richard Koné Queens Park Rangers Ativo 119 / 120 40% 2 19.11.2026 -
Maxence Lacroix Chelsea Ativo 146 / 135 40% 2 14.11.2026 -
Adrien Truffert Bournemouth Ativo 153 / 146 40% 1 14.11.2026 -
Pedro Porro Tottenham Ativo 145 / 141 40% 1 12.11.2026 -
Sven Botman Newcastle United Ativo 161 / 161 40% 1 12.11.2026 -
Mats Wieffer Brighton Ativo 151 / 145 40% 2 10.11.2026 -
Michael Kayode Brentford Ativo 143 / 162 40% 1 10.11.2026 -
Alex Scott Bournemouth Ativo 148 / 137 40% 1 09.11.2026 -
Sam Greenwood Bristol City Ativo 122 / 132 40% 1 06.11.2026 -
Christian Saydee Wigan Athletic Ativo 111 / 113 40% 1 05.11.2026 -
Luca Langoni New England Revolution Ativo 130 / 144 40% 1 02.11.2026 -
Lewis Hall Newcastle United Ativo 153 / 159 40% 1 01.11.2026 -
Ferdi Kadıoğlu Brighton Ativo 146 / 149 40% 1 31.10.2026 -
Nico González Newcastle United Ativo 157 / 149 40% 1 31.10.2026 -
Louis Munteanu DC United Ativo 123 / 123 40% 2 30.10.2026 -
Juanlu Bournemouth Ativo 150 / 140 40% 2 26.10.2026 -
Moisés Caicedo Chelsea Ativo 168 / 182 40% 1 25.10.2026 -
Jeong Sang-Bin St. Louis CITY SC Ativo 115 / 106 40% 2 16.10.2026 -
Rico Lewis Manchester City Ativo 146 / 143 40% 2 15.10.2026 -
Alexander Aravena Portland Timbers Ativo 124 / 128 40% 2 14.10.2026 -
Nəriman Axundzadə Columbus Crew Ativo 120 / 122 40% 1 09.10.2026 -
Kevin Schade Brentford Ativo 150 / 161 40% 1 09.10.2026 -
Yanela Mbuthuma Orlando Pirates Ativo 108 / 126 40% 1 07.10.2026 -
Marezi Portsmouth Ativo 124 / 130 40% 1 06.10.2026 -
Nicolas Jackson Aston Villa Ativo 147 / 145 40% 1 19.09.2026 -
Alexis Mac Allister Liverpool Ativo 161 / 149 40% 1 19.09.2026 -
Matheus Nascimento Houston Dynamo Ativo 113 / 125 40% 2 18.09.2026 -
Archie Goodwin Charlotte Football Club Ativo 107 / 127 40% 3 18.09.2026 -
Agustín Anello Philadelphia Union Ativo 119 / 111 40% 1 16.09.2026 -
Hugo Ekitiké Liverpool Ativo 161 / 153 40% 1 16.09.2026 -
Martín Ojeda Orlando City Ativo 141 / 134 40% 1 16.09.2026 -
Aaron Hickey Brentford Ativo 137 / 146 40% 1 16.09.2026 -
Mohammed Kudus Tottenham Ativo 155 / 156 40% 1 16.09.2026 -
Alexander Isak Liverpool Ativo 170 / 178 40% 1 12.09.2026 -
Cole Palmer Chelsea Ativo 176 / 161 40% 1 12.09.2026 -
Dominik Szoboszlai Liverpool Ativo 167 / 163 40% 2 11.09.2026 -
Jacob Ramsey Newcastle United Ativo 146 / 152 40% 1 11.09.2026 -
Djordje Mihailović Toronto FC Ativo 132 / 119 40% 1 10.09.2026 -
Dejan Kulusevski Tottenham Ativo 166 / 152 40% 1 10.09.2026 -
Florian Wirtz Liverpool Ativo 170 / 163 40% 1 08.09.2026 -